Time,TemperatureF,DewpointF,PressureIn,WindDirection,WindDirectionDegrees,WindSpeedMPH,WindSpeedGustMPH,Humidity,HourlyPrecipIn,Conditions,Clouds,dailyrainin,SoftwareType,DateUTC
2013-08-14 00:12:00,57.0,49.0,-100.00,WSW,253,13.0,-999.0,72,-99.99,,,-99.99,,2013-08-14 04:12:00,
2013-08-14 00:23:00,57.0,49.0,-100.00,West,279,13.0,-999.0,73,-99.99,,,-99.99,,2013-08-14 04:23:00,
2013-08-14 00:42:00,57.0,48.0,-100.00,WNW,282,10.0,-999.0,72,-99.99,,,-99.99,,2013-08-14 04:42:00,
2013-08-14 01:12:00,57.0,47.0,-100.00,WNW,296,11.0,-999.0,69,-99.99,,,-99.99,,2013-08-14 05:12:00,
2013-08-14 01:22:00,57.0,46.0,-100.00,WNW,292,10.0,-999.0,68,-99.99,,,-99.99,,2013-08-14 05:22:00,
2013-08-14 01:42:00,57.0,46.0,-100.00,West,272,10.0,-999.0,66,-99.99,,,-99.99,,2013-08-14 05:42:00,
2013-08-14 02:11:00,56.0,47.0,-100.00,West,274,12.0,-999.0,71,-99.99,,,-99.99,,2013-08-14 06:11:00,
2013-08-14 02:21:00,56.0,47.0,-100.00,West,274,12.0,-999.0,71,-99.99,,,-99.99,,2013-08-14 06:21:00,
2013-08-14 02:42:00,56.0,47.0,-100.00,West,260,11.0,-999.0,71,-99.99,,,-99.99,,2013-08-14 06:42:00,
2013-08-14 02:52:00,56.0,47.0,-100.00,West,267,7.0,-999.0,72,-99.99,,,-99.99,,2013-08-14 06:52:00,
2013-08-14 03:11:00,55.0,47.0,-100.00,WNW,284,15.0,-999.0,73,-99.99,,,-99.99,,2013-08-14 07:11:00,
2013-08-14 03:42:00,55.0,47.0,-100.00,WNW,290,15.0,-999.0,75,-99.99,,,-99.99,,2013-08-14 07:42:00,
2013-08-14 03:52:00,54.0,47.0,-100.00,WNW,298,10.0,-999.0,76,-99.99,,,-99.99,,2013-08-14 07:52:00,
2013-08-14 04:11:00,53.0,47.0,-100.00,West,277,13.0,-999.0,78,-99.99,,,-99.99,,2013-08-14 08:11:00,
2013-08-14 04:42:00,53.0,47.0,-100.00,West,270,9.0,-999.0,79,-99.99,,,-99.99,,2013-08-14 08:42:00,
2013-08-14 04:52:00,52.0,47.0,-100.00,West,275,12.0,-999.0,81,-99.99,,,-99.99,,2013-08-14 08:52:00,
2013-08-14 05:11:00,52.0,46.0,-100.00,NNE,19,0.0,-999.0,81,-99.99,,,-99.99,,2013-08-14 09:11:00,
2013-08-14 05:21:00,52.0,46.0,-100.00,NNE,19,0.0,-999.0,81,-99.99,,,-99.99,,2013-08-14 09:21:00,
2013-08-14 05:43:00,53.0,47.0,-100.00,West,263,8.0,-999.0,81,-99.99,,,-99.99,,2013-08-14 09:43:00,
2013-08-14 05:53:00,53.0,47.0,-100.00,West,268,8.0,-999.0,81,-99.99,,,-99.99,,2013-08-14 09:53:00,
2013-08-14 06:03:00,53.0,47.0,-100.00,West,268,8.0,-999.0,81,-99.99,,,-99.99,,2013-08-14 10:03:00,
2013-08-14 06:23:00,53.0,48.0,-100.00,WSW,238,12.0,-999.0,82,-99.99,,,-99.99,,2013-08-14 10:23:00,
2013-08-14 06:42:00,53.0,48.0,-100.00,WSW,254,12.0,-999.0,84,-99.99,,,-99.99,,2013-08-14 10:42:00,
2013-08-14 06:53:00,53.0,49.0,-100.00,West,275,9.0,-999.0,86,-99.99,,,-99.99,,2013-08-14 10:53:00,
2013-08-14 07:02:00,53.0,49.0,-100.00,West,275,9.0,-999.0,86,-99.99,,,-99.99,,2013-08-14 11:02:00,
2013-08-14 07:21:00,53.0,49.0,-100.00,West,279,11.0,-999.0,87,-99.99,,,-99.99,,2013-08-14 11:21:00,
2013-08-14 07:42:00,53.0,50.0,-100.00,West,276,7.0,-999.0,89,-99.99,,,-99.99,,2013-08-14 11:42:00,
2013-08-14 08:21:00,54.0,51.0,-100.00,West,269,8.0,-999.0,89,-99.99,,,-99.99,,2013-08-14 12:21:00,
2013-08-14 08:42:00,54.0,51.0,-100.00,WNW,298,10.0,-999.0,89,-99.99,,,-99.99,,2013-08-14 12:42:00,
2013-08-14 09:22:00,54.0,52.0,-100.00,WNW,282,9.0,-999.0,91,-99.99,,,-99.99,,2013-08-14 13:22:00,
2013-08-14 09:42:00,56.0,53.0,-100.00,WSW,249,15.0,-999.0,89,-99.99,,,-99.99,,2013-08-14 13:42:00,
2013-08-14 10:22:00,58.0,54.0,-100.00,WSW,251,22.0,-999.0,85,-99.99,,,-99.99,,2013-08-14 14:22:00,
2013-08-14 10:42:00,58.0,53.0,-100.00,NW,320,13.0,-999.0,84,-99.99,,,-99.99,,2013-08-14 14:42:00,
2013-08-14 10:52:00,59.0,54.0,-100.00,SW,219,15.0,-999.0,83,-99.99,,,-99.99,,2013-08-14 14:52:00,
2013-08-14 11:02:00,59.0,54.0,-100.00,SW,219,15.0,-999.0,83,-99.99,,,-99.99,,2013-08-14 15:02:00,
2013-08-14 11:22:00,59.0,54.0,-100.00,West,273,18.0,-999.0,81,-99.99,,,-99.99,,2013-08-14 15:22:00,
2013-08-14 11:43:00,61.0,55.0,-100.00,West,271,14.0,-999.0,79,-99.99,,,-99.99,,2013-08-14 15:43:00,
2013-08-14 12:28:00,61.0,53.0,-100.00,SW,227,23.0,-999.0,74,-99.99,,,-99.99,,2013-08-14 16:28:00,
2013-08-14 12:43:00,61.0,53.0,-100.00,SSW,197,17.0,-999.0,74,-99.99,,,-99.99,,2013-08-14 16:43:00,
2013-08-14 13:05:00,62.0,54.0,-100.00,SE,144,19.0,-999.0,74,-99.99,,,-99.99,,2013-08-14 17:05:00,
2013-08-14 13:29:00,60.0,52.0,-100.00,SSW,203,16.0,-999.0,76,-99.99,,,-99.99,,2013-08-14 17:29:00,
2013-08-14 13:44:00,62.0,53.0,-100.00,SSW,198,21.0,-999.0,73,-99.99,,,-99.99,,2013-08-14 17:44:00,
2013-08-14 14:33:00,-999.0,-99.9,-100.00,WNW,285,22.0,-999.0,67,-99.99,,,-99.99,,2013-08-14 18:33:00,
2013-08-14 15:03:00,-999.0,-99.9,-100.00,SE,128,16.0,-999.0,-999,-99.99,,,-99.99,,2013-08-14 19:03:00,
2013-08-14 15:35:00,63.0,53.0,-100.00,West,272,14.0,-999.0,70,-99.99,,,-99.99,,2013-08-14 19:35:00,
2013-08-14 15:42:00,66.0,53.0,-100.00,West,263,17.0,-999.0,63,-99.99,,,-99.99,,2013-08-14 19:42:00,
2013-08-14 16:12:00,65.0,54.0,-100.00,East,83,12.0,-999.0,66,-99.99,,,-99.99,,2013-08-14 20:12:00,
2013-08-14 16:49:00,65.0,53.0,-100.00,SSW,199,12.0,-999.0,65,-99.99,,,-99.99,,2013-08-14 20:49:00,
2013-08-14 17:13:00,66.0,52.0,-100.00,ESE,110,15.0,-999.0,61,-99.99,,,-99.99,,2013-08-14 21:13:00,
2013-08-14 17:24:00,65.0,51.0,-100.00,SW,234,25.0,-999.0,58,-99.99,,,-99.99,,2013-08-14 21:24:00,
2013-08-14 17:45:00,65.0,49.0,-100.00,SW,217,13.0,-999.0,56,-99.99,,,-99.99,,2013-08-14 21:45:00,
2013-08-14 18:13:00,65.0,49.0,-100.00,West,261,15.0,-999.0,56,-99.99,,,-99.99,,2013-08-14 22:13:00,
2013-08-14 18:23:00,66.0,49.0,-100.00,SSE,157,12.0,-999.0,54,-99.99,,,-99.99,,2013-08-14 22:23:00,
2013-08-14 18:44:00,65.0,49.0,-100.00,West,277,10.0,-999.0,55,-99.99,,,-99.99,,2013-08-14 22:44:00,
2013-08-14 19:25:00,65.0,48.0,-100.00,South,172,13.0,-999.0,53,-99.99,,,-99.99,,2013-08-14 23:25:00,
2013-08-14 19:46:00,64.0,48.0,-100.00,WSW,245,11.0,-999.0,54,-99.99,,,-99.99,,2013-08-14 23:46:00,
2013-08-14 19:56:00,63.0,48.0,-100.00,SW,228,8.0,-999.0,57,-99.99,,,-99.99,,2013-08-14 23:56:00,
2013-08-14 20:12:00,62.0,48.0,-100.00,West,269,8.0,-999.0,59,-99.99,,,-99.99,,2013-08-15 00:12:00,
2013-08-14 20:23:00,62.0,48.0,-100.00,West,269,8.0,-999.0,59,-99.99,,,-99.99,,2013-08-15 00:23:00,
2013-08-14 20:43:00,60.0,48.0,-100.00,West,276,6.0,-999.0,64,-99.99,,,-99.99,,2013-08-15 00:43:00,
2013-08-14 20:52:00,59.0,48.0,-100.00,West,266,5.0,-999.0,67,-99.99,,,-99.99,,2013-08-15 00:52:00,
2013-08-14 21:01:00,59.0,48.0,-100.00,West,266,5.0,-999.0,67,-99.99,,,-99.99,,2013-08-15 01:01:00,
2013-08-14 21:22:00,58.0,48.0,-100.00,WSW,256,5.0,-999.0,69,-99.99,,,-99.99,,2013-08-15 01:22:00,
2013-08-14 21:42:00,58.0,48.0,-100.00,NE,42,0.0,-999.0,71,-99.99,,,-99.99,,2013-08-15 01:42:00,
2013-08-14 21:52:00,57.0,48.0,-100.00,North,0,0.0,-999.0,73,-99.99,,,-99.99,,2013-08-15 01:52:00,
2013-08-14 22:02:00,57.0,48.0,-100.00,North,0,0.0,-999.0,73,-99.99,,,-99.99,,2013-08-15 02:02:00,
2013-08-14 22:21:00,56.0,48.0,-100.00,SW,214,6.0,-999.0,74,-99.99,,,-99.99,,2013-08-15 02:21:00,
2013-08-14 23:22:00,56.0,48.0,-100.00,SW,236,6.0,-999.0,73,-99.99,,,-99.99,,2013-08-15 03:22:00,
2013-08-14 23:43:00,55.0,48.0,-100.00,SW,221,8.0,-999.0,75,-99.99,,,-99.99,,2013-08-15 03:43:00,
2013-08-14 23:53:00,55.0,48.0,-100.00,SSW,205,9.0,-999.0,75,-99.99,,,-99.99,,2013-08-15 03:53:00,